createdAt,value
2023-01-17T00:02:23.207Z,457.13
2023-01-17T00:05:11.460Z,462.20
2023-01-17T00:07:58.551Z,464.40
2023-01-17T00:10:31.421Z,456.58
2023-01-17T00:13:02.463Z,472.30
2023-01-17T00:15:34.172Z,449.35
2023-01-17T00:18:03.410Z,462.40
2023-01-17T00:20:52.365Z,460.60
2023-01-17T00:23:56.729Z,478.27
2023-01-17T00:26:26.121Z,484.77
2023-01-17T00:28:53.192Z,464.10
2023-01-17T00:31:21.698Z,456.23
2023-01-17T00:33:48.709Z,450.38
2023-01-17T00:36:16.955Z,453.52
2023-01-17T00:38:45.585Z,464.42
2023-01-17T00:41:16.416Z,483.40
2023-01-17T00:44:04.535Z,466.83
2023-01-17T00:46:52.875Z,483.17
2023-01-17T00:49:41.389Z,491.85
2023-01-17T00:52:27.129Z,494.05
2023-01-17T00:55:14.139Z,475.85
2023-01-17T00:58:01.130Z,473.17
2023-01-17T01:00:46.619Z,484.15
2023-01-17T01:03:35.139Z,475.48
2023-01-17T01:06:24.775Z,491.10
2023-01-17T01:09:12.422Z,481.73
2023-01-17T01:11:58.265Z,482.58
2023-01-17T01:14:46.412Z,483.02
2023-01-17T01:17:32.508Z,494.63
2023-01-17T01:20:19.727Z,489.08
2023-01-17T01:23:06.798Z,494.23
2023-01-17T01:25:55.339Z,492.55
2023-01-17T01:28:41.324Z,515.35
2023-01-17T01:31:28.380Z,460.67
2023-01-17T01:33:57.696Z,598.35
2023-01-17T01:36:28.333Z,507.50
2023-01-17T01:38:57.817Z,517.72
2023-01-17T01:41:26.034Z,511.77
2023-01-17T01:43:58.182Z,509.02
2023-01-17T01:49:03.290Z,504.85
2023-01-17T01:51:37.277Z,507.10
2023-01-17T01:54:12.251Z,505.35
2023-01-17T01:56:43.054Z,510.23
2023-01-17T01:59:17.125Z,513.03
2023-01-17T02:01:47.649Z,511.38
2023-01-17T02:04:18.648Z,492.15
2023-01-17T02:06:52.807Z,481.83
2023-01-17T02:09:22.100Z,485.23
2023-01-17T02:11:51.056Z,484.80
2023-01-17T02:14:22.731Z,488.50
2023-01-17T02:17:07.349Z,478.25
2023-01-17T02:20:36.894Z,473.02
2023-01-17T02:23:34.214Z,534.33
2023-01-17T02:26:51.779Z,502.75
2023-01-17T02:30:14.373Z,508.42
2023-01-17T02:33:04.479Z,499.38
2023-01-17T02:35:42.798Z,518.75
2023-01-17T02:38:21.362Z,495.55
2023-01-17T02:40:56.883Z,502.15
2023-01-17T02:43:27.175Z,492.73
2023-01-17T02:45:55.396Z,486.88
2023-01-17T02:48:28.413Z,488.75
2023-01-17T02:51:29.204Z,501.85
2023-01-17T02:54:32.425Z,502.13
2023-01-17T02:57:25.492Z,504.48
2023-01-17T03:00:04.852Z,492.40
2023-01-17T03:02:43.671Z,481.33
2023-01-17T03:05:20.501Z,482.45
2023-01-17T03:07:51.859Z,483.13
2023-01-17T03:10:24.018Z,488.67
2023-01-17T03:12:58.760Z,490.13
2023-01-17T03:15:29.942Z,505.10
2023-01-17T03:18:03.055Z,493.92
2023-01-17T03:20:33.688Z,501.33
2023-01-17T03:23:03.260Z,494.33
2023-01-17T03:25:31.376Z,496.25
2023-01-17T03:27:59.901Z,518.65
2023-01-17T03:30:29.316Z,503.33
2023-01-17T03:32:58.675Z,491.83
2023-01-17T03:35:28.234Z,483.20
2023-01-17T03:37:57.686Z,488.65
2023-01-17T03:40:27.059Z,501.77
2023-01-17T03:42:56.490Z,484.40
2023-01-17T03:45:25.897Z,479.30
2023-01-17T03:47:56.753Z,482.08
2023-01-17T03:50:26.662Z,484.58
2023-01-17T03:52:54.786Z,491.58
2023-01-17T03:55:24.346Z,496.60
2023-01-17T03:57:52.437Z,493.95
2023-01-17T04:00:22.988Z,531.53
2023-01-17T04:02:51.089Z,517.22
2023-01-17T04:05:20.428Z,516.63
2023-01-17T04:07:49.268Z,503.95
2023-01-17T04:10:19.977Z,510.05
2023-01-17T04:12:49.860Z,494.40
2023-01-17T04:15:18.189Z,490.08
2023-01-17T04:17:47.519Z,511.88
2023-01-17T04:20:27.577Z,493.35
2023-01-17T04:22:55.838Z,493.90
2023-01-17T04:25:25.672Z,497.80
2023-01-17T04:27:56.577Z,486.58
2023-01-17T04:30:24.963Z,492.00
2023-01-17T04:32:54.506Z,505.90
2023-01-17T04:35:24.872Z,495.10
2023-01-17T04:37:54.958Z,497.88
2023-01-17T04:40:26.142Z,525.75
2023-01-17T04:42:55.921Z,514.33
2023-01-17T04:45:26.514Z,495.27
2023-01-17T04:47:54.800Z,497.73
2023-01-17T04:50:25.446Z,496.10
2023-01-17T04:52:55.015Z,508.90
2023-01-17T04:55:24.703Z,496.15
2023-01-17T04:57:54.628Z,482.00
2023-01-17T05:00:24.416Z,480.95
2023-01-17T05:02:52.885Z,481.20
2023-01-17T05:05:21.292Z,483.27
2023-01-17T05:07:57.960Z,478.05
2023-01-17T05:10:28.222Z,474.45
2023-01-17T05:12:58.553Z,472.45
2023-01-17T05:15:30.828Z,476.08
2023-01-17T05:17:59.544Z,366.67
2023-01-17T05:20:28.078Z,418.67
2023-01-17T05:22:57.035Z,457.30
2023-01-17T05:25:27.371Z,427.05
2023-01-17T05:27:59.944Z,340.50
2023-01-17T05:30:33.621Z,335.90
2023-01-17T05:33:01.756Z,331.83
2023-01-17T05:35:33.566Z,315.35
2023-01-17T05:38:02.031Z,315.45
2023-01-17T05:40:33.241Z,340.73
2023-01-17T05:43:04.040Z,406.20
2023-01-17T05:45:36.092Z,320.25
2023-01-17T05:48:05.031Z,423.08
2023-01-17T05:50:37.986Z,317.90
2023-01-17T05:53:09.519Z,316.52
2023-01-17T05:55:39.656Z,338.73
2023-01-17T05:58:09.953Z,314.38
2023-01-17T06:00:42.503Z,306.95
2023-01-17T06:03:11.413Z,297.85
2023-01-17T06:05:42.194Z,303.23
2023-01-17T06:08:12.008Z,316.85
2023-01-17T06:10:41.358Z,299.98
2023-01-17T06:13:15.265Z,298.67
2023-01-17T06:15:44.784Z,314.02
2023-01-17T06:18:16.442Z,303.05
2023-01-17T06:20:47.571Z,318.20
2023-01-17T06:23:16.166Z,380.05
2023-01-17T06:25:47.863Z,344.25
2023-01-17T06:28:19.712Z,372.45
2023-01-17T06:30:51.163Z,386.20
2023-01-17T06:33:20.750Z,365.27
2023-01-17T06:35:51.417Z,380.63
2023-01-17T06:38:20.264Z,425.02
2023-01-17T06:40:48.568Z,429.27
2023-01-17T06:43:17.232Z,410.23
2023-01-17T06:45:46.601Z,436.38
2023-01-17T06:48:16.149Z,423.27
2023-01-17T06:50:48.058Z,400.42
2023-01-17T06:53:17.973Z,415.40
2023-01-17T06:55:47.259Z,449.60
2023-01-17T06:58:15.411Z,440.35
2023-01-17T07:00:46.096Z,454.52
2023-01-17T07:03:20.993Z,454.40
2023-01-17T07:05:50.312Z,457.52
2023-01-17T07:08:21.196Z,466.00
2023-01-17T07:10:51.690Z,465.35
2023-01-17T07:13:21.086Z,458.45
2023-01-17T07:15:50.787Z,451.58
2023-01-17T07:18:23.411Z,446.05
2023-01-17T07:20:53.509Z,459.13
2023-01-17T07:23:23.800Z,458.38
2023-01-17T07:25:55.337Z,452.33
2023-01-17T07:28:25.941Z,453.85
2023-01-17T07:30:57.194Z,462.30
2023-01-17T07:33:27.891Z,445.63
2023-01-17T07:35:57.312Z,456.70
2023-01-17T07:38:25.772Z,462.02
2023-01-17T07:41:00.841Z,465.00
2023-01-17T07:43:29.022Z,453.25
2023-01-17T07:45:57.497Z,451.33
2023-01-17T07:48:28.835Z,463.10
2023-01-17T07:50:59.451Z,463.80
2023-01-17T07:53:32.550Z,473.58
2023-01-17T07:56:04.544Z,469.48
2023-01-17T07:58:35.025Z,472.63
2023-01-17T08:01:05.744Z,466.10
2023-01-17T08:03:41.035Z,462.83
2023-01-17T08:06:19.425Z,464.38
2023-01-17T08:08:48.353Z,466.38
2023-01-17T08:11:18.060Z,472.50
2023-01-17T08:13:47.542Z,471.05
2023-01-17T08:16:17.152Z,465.00
2023-01-17T08:18:47.855Z,463.73
2023-01-17T08:21:18.513Z,469.98
2023-01-17T08:23:49.594Z,464.58
2023-01-17T08:26:22.672Z,460.60
2023-01-17T08:28:56.965Z,466.67
2023-01-17T08:31:26.352Z,461.38
2023-01-17T08:33:57.915Z,460.80
2023-01-17T08:36:29.875Z,463.75
2023-01-17T08:38:58.589Z,458.83
2023-01-17T08:41:29.059Z,461.40
2023-01-17T08:43:57.753Z,459.10
2023-01-17T08:46:27.252Z,466.70
2023-01-17T08:49:00.218Z,451.38
2023-01-17T08:51:32.462Z,456.52
2023-01-17T08:56:30.755Z,467.27
2023-01-17T08:59:00.526Z,465.88
2023-01-17T09:01:30.296Z,474.38
2023-01-17T09:04:01.082Z,471.90
2023-01-17T09:06:30.333Z,476.70
2023-01-17T09:08:59.624Z,471.90
2023-01-17T09:11:29.527Z,471.42
2023-01-17T09:13:59.155Z,476.00
2023-01-17T09:16:27.442Z,468.38
2023-01-17T09:19:01.174Z,471.48
2023-01-17T09:21:29.301Z,469.48
2023-01-17T09:23:59.787Z,463.50
2023-01-17T09:26:31.618Z,462.88
2023-01-17T09:29:02.371Z,461.20
2023-01-17T09:31:31.833Z,464.88
2023-01-17T09:34:02.205Z,460.98
2023-01-17T09:36:33.985Z,460.35
2023-01-17T09:39:06.185Z,453.25
2023-01-17T09:44:16.201Z,447.25
2023-01-17T09:46:50.430Z,458.23
2023-01-17T09:49:34.374Z,467.00
2023-01-17T09:52:05.546Z,464.50
2023-01-17T09:54:38.783Z,464.63
2023-01-17T09:57:23.362Z,465.45
2023-01-17T10:00:04.382Z,454.00
2023-01-17T10:05:56.458Z,461.48
2023-01-17T10:08:43.783Z,477.53
2023-01-17T10:11:33.561Z,477.25
2023-01-17T10:14:26.035Z,486.70
2023-01-17T10:17:05.385Z,495.00
2023-01-17T10:19:45.642Z,503.17
2023-01-17T10:22:53.030Z,489.13
2023-01-17T10:25:38.656Z,484.23
2023-01-17T10:28:16.474Z,473.02
2023-01-17T10:30:50.829Z,469.00
2023-01-17T10:33:24.478Z,469.75
2023-01-17T10:35:58.535Z,473.98
2023-01-17T10:38:35.968Z,476.58
2023-01-17T10:41:10.529Z,480.63
2023-01-17T10:43:49.328Z,447.25
2023-01-17T10:46:28.414Z,475.63
2023-01-17T10:48:57.698Z,474.35
2023-01-17T10:52:01.027Z,470.58
2023-01-17T10:54:51.504Z,483.10
2023-01-17T10:57:24.281Z,478.00
2023-01-17T10:59:55.028Z,471.50
2023-01-17T11:02:30.526Z,476.77
2023-01-17T11:05:12.150Z,474.70
2023-01-17T11:07:44.008Z,480.25
2023-01-17T11:10:40.287Z,478.75
2023-01-17T11:13:30.475Z,476.35
2023-01-17T11:16:02.231Z,453.65
2023-01-17T11:18:37.543Z,487.88
2023-01-17T11:21:12.189Z,472.42
2023-01-17T11:23:44.516Z,460.52
2023-01-17T11:28:54.547Z,468.88
2023-01-17T11:31:27.693Z,483.13
2023-01-17T11:34:18.730Z,468.27
2023-01-17T11:36:47.005Z,449.90
2023-01-17T11:39:28.739Z,462.80
2023-01-17T11:41:58.609Z,482.17
2023-01-17T11:44:30.552Z,479.90
2023-01-17T11:47:19.280Z,482.25
2023-01-17T11:49:51.704Z,491.83
2023-01-17T11:52:26.319Z,492.60
2023-01-17T11:54:56.929Z,507.70
2023-01-17T11:57:30.699Z,510.83
2023-01-17T12:00:15.440Z,499.45
2023-01-17T12:03:22.194Z,486.48
2023-01-17T12:06:03.073Z,475.73
2023-01-17T12:08:52.427Z,486.70
2023-01-17T12:11:30.267Z,472.98
2023-01-17T12:14:16.017Z,451.05
2023-01-17T12:17:03.458Z,478.63
2023-01-17T12:19:46.778Z,491.67
2023-01-17T12:22:36.217Z,481.67
2023-01-17T12:25:41.032Z,480.75
2023-01-17T12:28:32.909Z,483.58
2023-01-17T12:31:18.320Z,490.52
2023-01-17T12:33:55.012Z,497.00
2023-01-17T12:36:40.961Z,519.47
2023-01-17T12:39:15.496Z,487.80
2023-01-17T12:42:02.613Z,443.08
2023-01-17T12:44:50.203Z,422.00
2023-01-17T12:47:22.809Z,530.30
2023-01-17T12:50:05.091Z,501.95
2023-01-17T12:52:52.494Z,415.27
2023-01-17T12:55:34.639Z,431.77
2023-01-17T12:58:08.101Z,432.10
2023-01-17T13:00:40.627Z,433.58
2023-01-17T13:03:23.968Z,432.95
2023-01-17T13:05:55.197Z,431.60
2023-01-17T13:08:31.034Z,424.88
2023-01-17T13:11:07.557Z,420.23
2023-01-17T13:13:39.540Z,421.23
2023-01-17T13:16:17.257Z,426.63
2023-01-17T13:18:51.491Z,430.33
2023-01-17T13:21:32.044Z,428.17
2023-01-17T13:24:45.523Z,425.38
2023-01-17T13:27:59.854Z,429.00
2023-01-17T13:31:05.730Z,435.05
2023-01-17T13:33:55.889Z,402.98
2023-01-17T13:36:46.366Z,426.92
2023-01-17T13:39:55.360Z,427.70
2023-01-17T13:42:36.139Z,434.63
2023-01-17T13:45:09.985Z,432.90
2023-01-17T13:47:43.309Z,433.35
2023-01-17T13:53:59.080Z,421.42
2023-01-17T13:56:36.093Z,421.23
2023-01-17T13:59:30.662Z,418.63
2023-01-17T14:01:59.970Z,429.08
2023-01-17T14:05:11.509Z,424.92
2023-01-17T14:07:47.748Z,429.40
2023-01-17T14:10:35.133Z,434.33
2023-01-17T14:13:07.665Z,415.30
2023-01-17T14:15:51.040Z,423.35
2023-01-17T14:18:36.164Z,421.42
2023-01-17T14:21:10.534Z,433.00
2023-01-17T14:24:05.675Z,438.52
2023-01-17T14:26:44.506Z,435.50
2023-01-17T14:29:57.850Z,442.13
2023-01-17T14:32:31.484Z,502.70
2023-01-17T14:35:02.134Z,491.10
2023-01-17T14:37:46.805Z,482.60
2023-01-17T14:40:25.047Z,476.95
2023-01-17T14:43:02.395Z,469.65
2023-01-17T14:45:35.741Z,465.42
2023-01-17T14:48:08.785Z,463.27
2023-01-17T14:50:40.523Z,470.75
2023-01-17T14:53:20.450Z,483.40
2023-01-17T14:56:00.977Z,484.65
2023-01-17T14:58:32.449Z,472.92
2023-01-17T15:01:04.725Z,465.98
2023-01-17T15:03:45.222Z,443.80
2023-01-17T15:06:18.388Z,447.02
2023-01-17T15:08:48.918Z,471.33
2023-01-17T15:11:25.147Z,459.05
2023-01-17T15:13:58.576Z,461.83
2023-01-17T15:16:29.842Z,455.48
2023-01-17T15:19:01.163Z,457.05
2023-01-17T15:21:35.430Z,430.30
2023-01-17T15:24:07.206Z,449.63
2023-01-17T15:26:43.220Z,474.63
2023-01-17T15:29:26.529Z,458.30
2023-01-17T15:31:59.171Z,458.42
2023-01-17T15:34:31.409Z,462.77
2023-01-17T15:37:03.472Z,457.90
2023-01-17T15:39:36.373Z,468.95
2023-01-17T15:42:19.351Z,452.73
2023-01-17T15:44:55.650Z,439.80
2023-01-17T15:47:31.080Z,426.02
2023-01-17T15:50:03.296Z,428.75
2023-01-17T15:52:33.634Z,421.63
2023-01-17T15:55:16.223Z,422.73
2023-01-17T15:57:48.864Z,412.38
2023-01-17T16:00:23.947Z,410.83
2023-01-17T16:02:56.156Z,419.98
2023-01-17T16:05:43.909Z,422.48
2023-01-17T16:08:31.927Z,417.67
2023-01-17T16:11:07.343Z,427.60
2023-01-17T16:13:42.082Z,416.45
2023-01-17T16:16:21.370Z,405.52
2023-01-17T16:19:00.591Z,411.17
2023-01-17T16:21:32.709Z,413.45
2023-01-17T16:26:32.191Z,393.70
2023-01-17T16:29:02.109Z,391.80
2023-01-17T16:31:32.441Z,385.70
2023-01-17T16:34:03.751Z,390.02
2023-01-17T16:36:34.935Z,390.77
2023-01-17T16:39:06.229Z,379.77
2023-01-17T16:41:34.682Z,391.23
2023-01-17T16:44:07.472Z,412.63
2023-01-17T16:46:38.591Z,369.23
2023-01-17T16:49:09.517Z,362.37
2023-01-17T16:51:37.948Z,359.02
2023-01-17T16:54:07.687Z,354.85
2023-01-17T16:56:37.057Z,353.30
2023-01-17T16:59:07.661Z,354.58
2023-01-17T17:01:37.376Z,347.40
2023-01-17T17:04:07.047Z,342.35
2023-01-17T17:06:35.512Z,330.15
2023-01-17T17:09:06.106Z,328.73
2023-01-17T17:11:35.779Z,339.85
2023-01-17T17:14:05.763Z,316.38
2023-01-17T17:16:35.570Z,327.90
2023-01-17T17:19:06.985Z,331.80
2023-01-17T17:21:38.435Z,333.98
2023-01-17T17:24:07.577Z,337.95
2023-01-17T17:26:38.140Z,331.55
2023-01-17T17:29:10.419Z,346.70
2023-01-17T17:31:42.998Z,344.52
2023-01-17T17:34:14.444Z,350.45
2023-01-17T17:36:44.000Z,366.83
2023-01-17T17:39:16.907Z,357.45
2023-01-17T17:41:46.670Z,356.85
2023-01-17T17:44:16.384Z,342.88
2023-01-17T17:46:49.127Z,335.15
2023-01-17T17:49:17.918Z,342.58
2023-01-17T17:51:46.052Z,341.90
2023-01-17T17:54:17.165Z,348.38
2023-01-17T17:56:48.226Z,323.60
2023-01-17T17:59:20.666Z,295.40
2023-01-17T18:01:50.954Z,289.50
2023-01-17T18:04:21.564Z,309.95
2023-01-17T18:06:49.637Z,306.27
2023-01-17T18:09:19.508Z,311.70
2023-01-17T18:11:47.662Z,303.65
2023-01-17T18:14:22.190Z,325.92
2023-01-17T18:16:53.256Z,342.33
2023-01-17T18:19:24.006Z,347.88
2023-01-17T18:21:54.057Z,345.25
2023-01-17T18:24:27.161Z,314.27
2023-01-17T18:26:57.598Z,308.95
2023-01-17T18:29:27.627Z,324.27
2023-01-17T18:31:57.359Z,348.95
2023-01-17T18:34:30.563Z,333.85
2023-01-17T18:36:59.525Z,345.23
2023-01-17T18:39:30.673Z,359.85
2023-01-17T18:42:00.481Z,346.17
2023-01-17T18:44:30.128Z,341.90
2023-01-17T18:47:04.300Z,366.45
2023-01-17T18:49:35.003Z,360.52
2023-01-17T18:52:03.220Z,363.58
2023-01-17T18:54:31.939Z,368.80
2023-01-17T18:57:01.242Z,387.08
2023-01-17T18:59:29.679Z,360.23
2023-01-17T19:02:00.680Z,387.63
2023-01-17T19:04:31.649Z,331.33
2023-01-17T19:07:00.925Z,321.80
2023-01-17T19:09:29.052Z,333.58
2023-01-17T19:12:01.158Z,356.85
2023-01-17T19:17:01.712Z,374.60
2023-01-17T19:19:31.226Z,308.05
2023-01-17T19:21:59.664Z,335.08
2023-01-17T19:24:29.277Z,351.98
2023-01-17T19:26:59.751Z,353.13
2023-01-17T19:29:29.142Z,368.30
2023-01-17T19:31:59.858Z,319.95
2023-01-17T19:34:27.916Z,265.70
2023-01-17T19:36:57.216Z,340.67
2023-01-17T19:39:28.562Z,343.17
2023-01-17T19:41:56.684Z,368.58
2023-01-17T19:44:24.847Z,352.20
2023-01-17T19:46:55.591Z,371.75
2023-01-17T19:49:25.112Z,370.10
2023-01-17T19:51:54.640Z,379.73
2023-01-17T19:54:24.271Z,375.42
2023-01-17T19:56:53.546Z,394.58
2023-01-17T19:59:23.213Z,394.50
2023-01-17T20:01:51.857Z,396.30
2023-01-17T20:04:20.474Z,366.60
2023-01-17T20:06:51.118Z,379.55
2023-01-17T20:09:20.731Z,375.35
2023-01-17T20:11:51.961Z,345.92
2023-01-17T20:14:20.131Z,321.98
2023-01-17T20:16:50.688Z,304.73
2023-01-17T20:19:20.433Z,385.48
2023-01-17T20:21:51.132Z,378.80
2023-01-17T20:24:20.497Z,396.73
2023-01-17T20:26:51.287Z,386.00
2023-01-17T20:29:20.580Z,395.85
2023-01-17T20:31:53.338Z,381.85
2023-01-17T20:34:25.623Z,382.95
2023-01-17T20:36:59.206Z,390.33
2023-01-17T20:39:27.652Z,412.98
2023-01-17T20:41:57.160Z,430.00
2023-01-17T20:44:25.505Z,420.00
2023-01-17T20:46:55.978Z,420.05
2023-01-17T20:49:25.464Z,434.80
2023-01-17T20:51:59.063Z,417.67
2023-01-17T20:54:27.323Z,422.20
2023-01-17T20:56:56.635Z,416.58
2023-01-17T20:59:25.869Z,394.48
2023-01-17T21:01:55.247Z,412.42
2023-01-17T21:04:26.111Z,385.60
2023-01-17T21:06:58.703Z,384.45
2023-01-17T21:09:28.002Z,390.33
2023-01-17T21:12:01.045Z,377.88
2023-01-17T21:14:29.431Z,399.98
2023-01-17T21:16:59.121Z,407.60
2023-01-17T21:19:27.835Z,401.63
2023-01-17T21:21:58.796Z,360.88
2023-01-17T21:26:58.229Z,376.67
2023-01-17T21:29:29.056Z,377.27
2023-01-17T21:31:57.239Z,369.67
2023-01-17T21:34:27.588Z,322.90
2023-01-17T21:36:59.693Z,315.67
2023-01-17T21:41:57.314Z,361.40
2023-01-17T21:44:27.079Z,352.88
2023-01-17T21:46:57.768Z,355.08
2023-01-17T21:49:26.051Z,356.02
2023-01-17T21:52:12.016Z,351.02
2023-01-17T21:55:00.116Z,333.95
2023-01-17T21:57:46.940Z,353.30
2023-01-17T22:00:17.432Z,344.30
2023-01-17T22:02:48.665Z,325.75
2023-01-17T22:05:18.496Z,350.92
2023-01-17T22:08:02.029Z,354.30
2023-01-17T22:13:00.007Z,364.52
2023-01-17T22:15:28.141Z,378.60
2023-01-17T22:17:57.889Z,336.05
2023-01-17T22:20:26.714Z,338.88
2023-01-17T22:22:55.010Z,348.65
2023-01-17T22:25:24.553Z,360.38
2023-01-17T22:27:56.666Z,361.15
2023-01-17T22:30:26.152Z,369.25
2023-01-17T22:32:59.336Z,383.60
2023-01-17T22:37:57.148Z,387.75
2023-01-17T22:40:27.784Z,380.75
2023-01-17T22:42:59.077Z,380.33
2023-01-17T22:45:28.979Z,376.10
2023-01-17T22:47:58.287Z,379.05
2023-01-17T22:50:26.765Z,375.17
2023-01-17T22:52:56.734Z,381.17
2023-01-17T22:55:26.617Z,367.65
2023-01-17T22:57:57.580Z,367.08
2023-01-17T23:00:26.206Z,362.35
2023-01-17T23:02:55.924Z,359.48
2023-01-17T23:05:25.080Z,358.13
2023-01-17T23:07:54.728Z,363.13
2023-01-17T23:10:37.110Z,355.80
2023-01-17T23:13:10.320Z,358.25
2023-01-17T23:16:02.591Z,357.75
2023-01-17T23:18:49.336Z,361.25
2023-01-17T23:21:19.790Z,357.13
2023-01-17T23:23:47.820Z,356.38
2023-01-17T23:26:16.859Z,351.50
2023-01-17T23:28:45.534Z,349.65
2023-01-17T23:31:14.894Z,353.13
2023-01-17T23:33:43.436Z,351.35
2023-01-17T23:36:13.050Z,359.27
2023-01-17T23:38:44.026Z,347.08
2023-01-17T23:41:31.156Z,359.80
2023-01-17T23:44:00.516Z,349.27
2023-01-17T23:46:31.428Z,353.27
2023-01-17T23:49:00.756Z,360.52
2023-01-17T23:51:30.373Z,357.05
2023-01-17T23:54:05.265Z,359.33
2023-01-17T23:56:35.901Z,349.88
2023-01-17T23:59:05.791Z,348.08
